createdAt,value
2022-09-23T00:00:08.814Z,66.11
2022-09-23T00:02:35.333Z,66.42
2022-09-23T00:05:01.779Z,66.40
2022-09-23T00:07:28.360Z,66.50
2022-09-23T00:09:54.883Z,66.15
2022-09-23T00:12:21.710Z,66.55
2022-09-23T00:14:48.242Z,66.81
2022-09-23T00:17:14.724Z,66.83
2022-09-23T00:19:41.308Z,66.81
2022-09-23T00:22:07.766Z,66.72
2022-09-23T00:24:34.260Z,66.70
2022-09-23T00:27:00.762Z,67.05
2022-09-23T00:29:27.279Z,67.21
2022-09-23T00:31:53.697Z,68.16
2022-09-23T00:34:20.115Z,67.98
2022-09-23T00:36:46.537Z,68.33
2022-09-23T00:39:12.996Z,68.70
2022-09-23T00:41:39.826Z,68.81
2022-09-23T00:44:43.895Z,69.97
2022-09-23T00:47:19.524Z,69.73
2022-09-23T00:49:52.419Z,69.77
2022-09-23T00:52:23.104Z,69.99
2022-09-23T00:54:52.747Z,70.46
2022-09-23T00:57:19.619Z,70.48
2022-09-23T00:59:47.819Z,70.64
2022-09-23T01:02:15.337Z,71.04
2022-09-23T01:04:42.559Z,71.21
2022-09-23T01:07:09.025Z,71.97
2022-09-23T01:09:36.239Z,72.17
2022-09-23T01:12:47.030Z,72.76
2022-09-23T01:15:34.676Z,72.69
2022-09-23T01:18:27.343Z,72.55
2022-09-23T01:21:15.737Z,73.21
2022-09-23T01:24:19.534Z,73.42
2022-09-23T01:27:00.513Z,73.69
2022-09-23T01:29:58.804Z,73.57
2022-09-23T01:32:40.341Z,73.49
2022-09-23T01:35:09.837Z,73.96
2022-09-23T01:37:51.057Z,73.35
2022-09-23T01:40:35.017Z,73.27
2022-09-23T01:43:09.866Z,73.22
2022-09-23T01:45:40.939Z,73.64
2022-09-23T01:48:22.713Z,74.39
2022-09-23T01:51:22.656Z,75.26
2022-09-23T01:54:20.796Z,75.03
2022-09-23T01:57:12.003Z,75.07
2022-09-23T01:59:43.088Z,74.86
2022-09-23T02:02:15.906Z,75.11
2022-09-23T02:04:42.296Z,75.15
2022-09-23T02:07:34.777Z,76.29
2022-09-23T02:10:10.685Z,75.46
2022-09-23T02:12:40.698Z,75.31
2022-09-23T02:15:14.513Z,75.81
2022-09-23T02:17:54.679Z,76.14
2022-09-23T02:20:39.383Z,76.32
2022-09-23T02:23:11.613Z,76.12
2022-09-23T02:26:00.869Z,76.81
2022-09-23T02:28:35.359Z,76.21
2022-09-23T02:31:11.883Z,76.35
2022-09-23T02:34:04.304Z,76.80
2022-09-23T02:36:54.241Z,76.29
2022-09-23T02:39:29.556Z,76.47
2022-09-23T02:42:04.396Z,76.37
2022-09-23T02:44:31.254Z,76.14
2022-09-23T02:46:57.764Z,76.44
2022-09-23T02:49:28.422Z,76.73
2022-09-23T02:51:57.127Z,76.63
2022-09-23T02:54:28.578Z,76.85
2022-09-23T02:56:55.358Z,77.15
2022-09-23T02:59:23.543Z,77.29
2022-09-23T03:02:21.749Z,77.93
2022-09-23T03:05:08.514Z,77.74
2022-09-23T03:08:02.956Z,77.99
2022-09-23T03:10:48.185Z,77.93
2022-09-23T03:13:48.348Z,78.44
2022-09-23T03:16:24.480Z,77.88
2022-09-23T03:19:12.599Z,78.89
2022-09-23T03:21:46.420Z,78.62
2022-09-23T03:24:14.612Z,78.19
2022-09-23T03:26:45.481Z,78.45
2022-09-23T03:29:13.719Z,78.43
2022-09-23T03:31:40.759Z,78.81
2022-09-23T03:34:22.538Z,78.77
2022-09-23T03:36:58.032Z,78.92
2022-09-23T03:39:27.602Z,78.56
2022-09-23T03:41:58.779Z,79.26
2022-09-23T03:44:25.317Z,78.89
2022-09-23T03:46:51.727Z,79.02
2022-09-23T03:49:25.518Z,79.26
2022-09-23T03:51:51.970Z,78.95
2022-09-23T03:54:18.380Z,79.51
2022-09-23T03:56:44.892Z,79.38
2022-09-23T03:59:11.327Z,78.80
2022-09-23T04:01:37.879Z,79.61
2022-09-23T04:04:04.336Z,79.16
2022-09-23T04:06:30.804Z,79.51
2022-09-23T04:08:58.662Z,79.40
2022-09-23T04:11:25.176Z,79.63
2022-09-23T04:13:51.620Z,79.61
2022-09-23T04:16:18.155Z,79.65
2022-09-23T04:18:44.603Z,79.61
2022-09-23T04:21:11.186Z,79.49
2022-09-23T04:23:37.647Z,79.44
2022-09-23T04:26:05.551Z,79.83
2022-09-23T04:28:32.129Z,80.03
2022-09-23T04:30:59.152Z,79.65
2022-09-23T04:33:25.705Z,79.84
2022-09-23T04:35:52.187Z,79.69
2022-09-23T04:38:19.497Z,80.01
2022-09-23T04:40:46.040Z,79.70
2022-09-23T04:43:13.643Z,79.95
2022-09-23T04:45:40.141Z,79.53
2022-09-23T04:48:06.612Z,79.90
2022-09-23T04:50:33.473Z,79.60
2022-09-23T04:52:59.927Z,80.09
2022-09-23T04:55:26.380Z,79.69
2022-09-23T04:57:52.797Z,80.00
2022-09-23T05:00:19.416Z,79.90
2022-09-23T05:02:47.962Z,79.89
2022-09-23T05:05:15.759Z,80.07
2022-09-23T05:07:42.206Z,79.89
2022-09-23T05:10:08.755Z,79.57
2022-09-23T05:12:35.187Z,79.90
2022-09-23T05:15:01.621Z,79.63
2022-09-23T05:17:28.427Z,79.86
2022-09-23T05:19:54.884Z,79.81
2022-09-23T05:22:21.286Z,79.47
2022-09-23T05:24:47.764Z,79.87
2022-09-23T05:27:14.181Z,79.85
2022-09-23T05:29:40.646Z,79.81
2022-09-23T05:32:07.100Z,79.83
2022-09-23T05:34:33.561Z,79.82
2022-09-23T05:37:00.133Z,79.66
2022-09-23T05:39:26.565Z,79.63
2022-09-23T05:41:53.005Z,79.49
2022-09-23T05:44:19.471Z,79.76
2022-09-23T05:46:45.954Z,79.94
2022-09-23T05:49:12.440Z,79.64
2022-09-23T05:51:39.083Z,79.53
2022-09-23T05:54:05.717Z,79.68
2022-09-23T05:56:33.666Z,79.78
2022-09-23T05:59:01.555Z,79.43
2022-09-23T06:01:31.749Z,79.36
2022-09-23T06:03:59.180Z,79.11
2022-09-23T06:06:31.610Z,79.57
2022-09-23T06:08:58.950Z,79.19
2022-09-23T06:11:25.870Z,79.55
2022-09-23T06:13:56.921Z,79.60
2022-09-23T06:16:23.484Z,79.29
2022-09-23T06:18:49.945Z,79.46
2022-09-23T06:21:17.701Z,79.29
2022-09-23T06:23:44.859Z,79.66
2022-09-23T06:26:16.115Z,79.55
2022-09-23T06:28:44.365Z,79.27
2022-09-23T06:31:14.101Z,79.49
2022-09-23T06:33:45.455Z,79.58
2022-09-23T06:36:17.665Z,79.21
2022-09-23T06:38:46.311Z,79.34
2022-09-23T06:41:12.763Z,79.26
2022-09-23T06:43:39.482Z,79.47
2022-09-23T06:46:07.142Z,79.41
2022-09-23T06:48:34.448Z,79.36
2022-09-23T06:51:03.187Z,79.32
2022-09-23T06:53:29.922Z,79.19
2022-09-23T06:56:05.906Z,79.45
2022-09-23T06:58:34.218Z,79.13
2022-09-23T07:01:06.202Z,79.03
2022-09-23T07:03:33.634Z,78.59
2022-09-23T07:06:00.528Z,78.79
2022-09-23T07:08:28.548Z,78.51
2022-09-23T07:10:57.390Z,78.52
2022-09-23T07:13:24.319Z,78.75
2022-09-23T07:15:55.561Z,78.44
2022-09-23T07:18:22.671Z,78.29
2022-09-23T07:20:50.640Z,78.65
2022-09-23T07:23:17.241Z,78.11
2022-09-23T07:25:44.873Z,77.83
2022-09-23T07:28:11.340Z,77.66
2022-09-23T07:30:43.907Z,77.88
2022-09-23T07:33:29.736Z,77.24
2022-09-23T07:35:57.838Z,77.40
2022-09-23T07:38:24.291Z,77.40
2022-09-23T07:40:50.836Z,77.19
2022-09-23T07:43:17.239Z,77.51
2022-09-23T07:45:43.715Z,77.44
2022-09-23T07:48:10.383Z,77.53
2022-09-23T07:50:39.200Z,77.35
2022-09-23T07:53:05.642Z,77.78
2022-09-23T07:55:32.075Z,77.64
2022-09-23T07:57:58.533Z,77.84
2022-09-23T08:00:25.003Z,77.93
2022-09-23T08:02:53.126Z,77.45
2022-09-23T08:05:19.905Z,77.71
2022-09-23T08:07:46.318Z,77.59
2022-09-23T08:10:12.760Z,77.61
2022-09-23T08:12:39.263Z,77.36
2022-09-23T08:15:06.267Z,77.67
2022-09-23T08:17:32.715Z,77.48
2022-09-23T08:19:59.164Z,77.63
2022-09-23T08:22:25.715Z,77.48
2022-09-23T08:24:54.053Z,77.20
2022-09-23T08:27:22.188Z,77.85
2022-09-23T08:29:48.614Z,77.59
2022-09-23T08:32:15.133Z,77.46
2022-09-23T08:34:41.577Z,77.90
2022-09-23T08:37:11.345Z,77.54
2022-09-23T08:39:37.795Z,77.40
2022-09-23T08:42:32.096Z,77.92
2022-09-23T08:45:04.599Z,77.85
2022-09-23T08:47:43.122Z,77.55
2022-09-23T08:50:24.161Z,77.64
2022-09-23T08:53:02.912Z,77.28
2022-09-23T08:55:41.464Z,76.77
2022-09-23T08:58:25.020Z,76.96
2022-09-23T09:01:16.555Z,76.75
2022-09-23T09:03:50.744Z,76.79
2022-09-23T09:06:45.636Z,76.77
2022-09-23T09:09:21.348Z,76.76
2022-09-23T09:11:52.349Z,76.53
2022-09-23T09:14:26.574Z,76.31
2022-09-23T09:17:01.507Z,76.36
2022-09-23T09:19:49.934Z,76.33
2022-09-23T09:22:22.658Z,76.09
2022-09-23T09:24:49.685Z,75.89
2022-09-23T09:27:16.339Z,75.91
2022-09-23T09:29:46.420Z,75.59
2022-09-23T09:32:18.681Z,75.52
2022-09-23T09:35:01.016Z,75.37
2022-09-23T09:37:39.180Z,75.81
2022-09-23T09:40:08.079Z,75.19
2022-09-23T09:42:40.356Z,75.04
2022-09-23T09:45:19.729Z,75.42
2022-09-23T09:48:00.208Z,74.86
2022-09-23T09:50:41.911Z,75.13
2022-09-23T09:53:24.842Z,74.75
2022-09-23T09:56:10.942Z,74.94
2022-09-23T09:58:55.402Z,74.67
2022-09-23T10:01:29.191Z,75.20
2022-09-23T10:03:59.486Z,74.46
2022-09-23T10:06:29.840Z,74.35
2022-09-23T10:09:08.509Z,74.36
2022-09-23T10:11:35.461Z,74.24
2022-09-23T10:14:17.729Z,74.05
2022-09-23T10:16:46.175Z,74.15
2022-09-23T10:19:26.954Z,73.83
2022-09-23T10:21:59.544Z,73.37
2022-09-23T10:24:32.231Z,72.60
2022-09-23T10:27:10.385Z,72.67
2022-09-23T10:29:39.349Z,72.62
2022-09-23T10:32:26.084Z,72.31
2022-09-23T10:35:17.492Z,72.16
2022-09-23T10:37:51.409Z,72.40
2022-09-23T10:40:30.096Z,72.61
2022-09-23T10:43:20.017Z,71.53
2022-09-23T10:45:49.474Z,71.79
2022-09-23T10:48:30.858Z,71.63
2022-09-23T10:50:59.460Z,72.24
2022-09-23T10:53:53.301Z,71.86
2022-09-23T10:56:30.370Z,71.71
2022-09-23T10:59:05.918Z,72.38
2022-09-23T11:01:43.741Z,72.42
2022-09-23T11:04:19.216Z,72.07
2022-09-23T11:07:22.388Z,72.30
2022-09-23T11:10:18.439Z,71.98
2022-09-23T11:13:43.380Z,71.60
2022-09-23T11:16:19.149Z,71.13
2022-09-23T11:19:07.525Z,71.77
2022-09-23T11:22:24.915Z,70.70
2022-09-23T11:25:00.281Z,70.39
2022-09-23T11:27:43.927Z,70.94
2022-09-23T11:30:16.205Z,70.51
2022-09-23T11:33:26.298Z,70.89
2022-09-23T11:35:58.912Z,70.57
2022-09-23T11:38:42.905Z,69.89
2022-09-23T11:41:12.133Z,69.35
2022-09-23T11:43:41.053Z,69.48
2022-09-23T11:46:13.516Z,68.23
2022-09-23T11:48:47.905Z,68.34
2022-09-23T11:51:14.283Z,67.78
2022-09-23T11:53:43.186Z,68.52
2022-09-23T11:56:35.031Z,68.15
2022-09-23T11:59:30.621Z,68.03
2022-09-23T12:02:36.345Z,66.46
2022-09-23T12:05:11.733Z,66.38
2022-09-23T12:07:57.463Z,66.17
2022-09-23T12:10:36.083Z,66.42
2022-09-23T12:13:33.885Z,66.53
2022-09-23T12:16:24.832Z,64.59
2022-09-23T12:19:28.789Z,64.93
2022-09-23T12:22:04.482Z,65.71
2022-09-23T12:25:09.572Z,64.92
2022-09-23T12:27:45.004Z,64.83
2022-09-23T12:30:27.975Z,64.67
2022-09-23T12:33:25.829Z,64.25
2022-09-23T12:35:54.391Z,64.65
2022-09-23T12:38:25.695Z,64.71
2022-09-23T12:40:56.324Z,64.43
2022-09-23T12:43:34.487Z,63.21
2022-09-23T12:46:24.698Z,63.24
2022-09-23T12:48:54.197Z,63.06
2022-09-23T12:51:21.913Z,62.28
2022-09-23T12:53:48.356Z,62.66
2022-09-23T12:56:16.141Z,62.58
2022-09-23T12:58:42.645Z,62.03
2022-09-23T13:01:15.412Z,61.73
2022-09-23T13:03:46.071Z,61.74
2022-09-23T13:06:12.571Z,60.96
2022-09-23T13:08:41.898Z,60.98
2022-09-23T13:11:29.146Z,60.44
2022-09-23T13:13:58.667Z,60.68
2022-09-23T13:16:40.732Z,60.49
2022-09-23T13:19:27.151Z,59.64
2022-09-23T13:21:53.583Z,59.87
2022-09-23T13:24:22.746Z,60.29
2022-09-23T13:27:03.241Z,60.04
2022-09-23T13:30:05.799Z,59.65
2022-09-23T13:32:40.773Z,59.48
2022-09-23T13:35:13.378Z,58.17
2022-09-23T13:37:47.045Z,57.86
2022-09-23T13:40:20.833Z,56.54
2022-09-23T13:43:03.789Z,56.96
2022-09-23T13:45:31.717Z,56.25
2022-09-23T13:48:04.102Z,55.70
2022-09-23T13:50:34.867Z,55.53
2022-09-23T13:53:02.658Z,56.19
2022-09-23T13:55:32.193Z,56.80
2022-09-23T13:58:00.798Z,56.27
2022-09-23T14:00:31.961Z,56.38
2022-09-23T14:02:58.326Z,55.75
2022-09-23T14:05:26.888Z,55.44
2022-09-23T14:07:55.825Z,55.76
2022-09-23T14:10:24.675Z,55.53
2022-09-23T14:12:52.577Z,55.01
2022-09-23T14:15:21.312Z,55.27
2022-09-23T14:17:52.007Z,55.69
2022-09-23T14:20:21.326Z,55.32
2022-09-23T14:22:47.950Z,55.57
2022-09-23T14:25:16.580Z,55.55
2022-09-23T14:27:44.724Z,54.75
2022-09-23T14:30:16.189Z,54.93
2022-09-23T14:32:43.117Z,54.70
2022-09-23T14:35:25.807Z,54.58
2022-09-23T14:37:58.202Z,54.88
2022-09-23T14:40:28.747Z,54.95
2022-09-23T14:42:55.191Z,54.90
2022-09-23T14:45:25.044Z,54.91
2022-09-23T14:47:58.739Z,55.39
2022-09-23T14:50:28.452Z,54.93
2022-09-23T14:52:54.927Z,55.29
2022-09-23T14:55:21.694Z,54.70
2022-09-23T14:57:48.226Z,54.82
2022-09-23T15:00:19.863Z,53.95
2022-09-23T15:03:02.527Z,53.99
2022-09-23T15:05:42.156Z,53.52
2022-09-23T15:08:11.949Z,53.51
2022-09-23T15:10:39.931Z,53.57
2022-09-23T15:13:19.243Z,53.03
2022-09-23T15:15:45.978Z,52.88
2022-09-23T15:18:22.895Z,52.85
2022-09-23T15:20:50.707Z,52.69
2022-09-23T15:23:47.920Z,52.56
2022-09-23T15:26:17.415Z,52.55
2022-09-23T15:28:44.968Z,52.92
2022-09-23T15:31:16.334Z,53.00
2022-09-23T15:33:46.858Z,53.30
2022-09-23T15:36:20.261Z,53.65
2022-09-23T15:38:47.503Z,53.53
2022-09-23T15:41:15.349Z,53.20
2022-09-23T15:43:41.822Z,53.04
2022-09-23T15:46:20.496Z,53.66
2022-09-23T15:48:59.288Z,53.22
2022-09-23T15:51:27.384Z,52.93
2022-09-23T15:53:54.481Z,53.45
2022-09-23T15:56:21.864Z,52.71
2022-09-23T15:58:48.885Z,53.07
2022-09-23T16:01:27.013Z,52.60
2022-09-23T16:03:54.017Z,53.20
2022-09-23T16:06:20.436Z,53.42
2022-09-23T16:08:46.969Z,53.28
2022-09-23T16:11:18.515Z,53.14
2022-09-23T16:13:45.380Z,53.24
2022-09-23T16:16:11.901Z,53.15
2022-09-23T16:18:38.437Z,53.08
2022-09-23T16:21:05.751Z,53.25
2022-09-23T16:23:37.058Z,53.42
2022-09-23T16:26:05.274Z,52.81
2022-09-23T16:28:31.701Z,53.02
2022-09-23T16:30:58.170Z,53.41
2022-09-23T16:33:24.831Z,53.34
2022-09-23T16:35:51.326Z,52.73
2022-09-23T16:38:17.736Z,53.26
2022-09-23T16:40:47.185Z,53.68
2022-09-23T16:43:13.876Z,53.56
2022-09-23T16:45:40.381Z,53.20
2022-09-23T16:48:06.858Z,53.32
2022-09-23T16:50:34.316Z,53.57
2022-09-23T16:53:00.779Z,53.53
2022-09-23T16:55:27.534Z,53.66
2022-09-23T16:57:54.653Z,53.20
2022-09-23T17:00:22.168Z,52.84
2022-09-23T17:02:48.608Z,52.90
2022-09-23T17:05:15.068Z,52.52
2022-09-23T17:07:41.546Z,53.01
2022-09-23T17:10:08.512Z,54.22
2022-09-23T17:12:34.963Z,54.19
2022-09-23T17:15:04.960Z,54.37
2022-09-23T17:17:34.221Z,54.48
2022-09-23T17:20:00.864Z,54.35
2022-09-23T17:22:29.800Z,55.28
2022-09-23T17:24:56.215Z,55.21
2022-09-23T17:27:22.644Z,55.28
2022-09-23T17:29:49.063Z,55.47
2022-09-23T17:32:15.582Z,55.93
2022-09-23T17:34:42.286Z,55.85
2022-09-23T17:37:09.633Z,56.37
2022-09-23T17:39:36.130Z,56.52
2022-09-23T17:42:02.613Z,56.39
2022-09-23T17:44:29.399Z,57.22
2022-09-23T17:46:55.866Z,56.78
2022-09-23T17:49:22.289Z,56.73
2022-09-23T17:51:48.750Z,57.49
2022-09-23T17:54:15.326Z,56.96
2022-09-23T17:56:42.196Z,57.72
2022-09-23T17:59:12.102Z,57.58
2022-09-23T18:01:39.100Z,57.36
2022-09-23T18:04:05.808Z,58.12
2022-09-23T18:06:35.500Z,57.90
2022-09-23T18:09:04.242Z,58.17
2022-09-23T18:11:34.015Z,58.69
2022-09-23T18:14:03.676Z,58.94
2022-09-23T18:16:34.469Z,59.45
2022-09-23T18:19:02.667Z,58.92
2022-09-23T18:21:37.403Z,59.37
2022-09-23T18:24:30.849Z,59.72
2022-09-23T18:26:50.717Z,59.51
2022-09-23T18:29:17.424Z,59.67
2022-09-23T18:31:44.002Z,60.14
2022-09-23T18:34:12.377Z,60.50
2022-09-23T18:36:38.908Z,60.60
2022-09-23T18:39:05.400Z,60.61
2022-09-23T18:41:31.884Z,60.58
2022-09-23T18:43:58.376Z,61.14
2022-09-23T18:46:29.347Z,61.05
2022-09-23T18:48:56.126Z,61.02
2022-09-23T18:51:23.515Z,60.76
2022-09-23T18:53:49.974Z,61.04
2022-09-23T18:56:18.528Z,61.22
2022-09-23T18:58:49.212Z,61.08
2022-09-23T19:01:16.755Z,61.01
2022-09-23T19:03:43.715Z,61.19
2022-09-23T19:06:12.889Z,61.96
2022-09-23T19:08:39.970Z,61.78
2022-09-23T19:11:08.507Z,61.49
2022-09-23T19:13:35.754Z,62.19
2022-09-23T19:16:03.830Z,62.35
2022-09-23T19:18:31.269Z,62.25
2022-09-23T19:20:58.005Z,62.57
2022-09-23T19:23:24.483Z,62.81
2022-09-23T19:25:50.950Z,63.02
2022-09-23T19:28:17.423Z,63.30
2022-09-23T19:30:43.840Z,63.63
2022-09-23T19:33:10.319Z,63.59
2022-09-23T19:35:45.901Z,64.22
2022-09-23T19:38:12.450Z,63.77
2022-09-23T19:40:38.914Z,64.33
2022-09-23T19:43:05.429Z,64.64
2022-09-23T19:45:31.866Z,65.08
2022-09-23T19:47:58.311Z,64.94
2022-09-23T19:50:24.796Z,65.07
2022-09-23T19:52:51.306Z,65.33
2022-09-23T19:55:19.055Z,65.67
2022-09-23T19:57:45.986Z,65.34
2022-09-23T20:00:14.256Z,65.42
2022-09-23T20:02:41.899Z,65.54
2022-09-23T20:05:11.897Z,65.63
2022-09-23T20:07:40.314Z,65.59
2022-09-23T20:10:08.515Z,65.59
2022-09-23T20:12:35.088Z,66.42
2022-09-23T20:15:01.559Z,66.08
2022-09-23T20:17:27.997Z,66.66
2022-09-23T20:19:54.451Z,66.79
2022-09-23T20:22:20.894Z,66.63
2022-09-23T20:24:47.432Z,66.83
2022-09-23T20:27:13.858Z,66.41
2022-09-23T20:29:40.338Z,66.47
2022-09-23T20:32:06.779Z,66.75
2022-09-23T20:34:34.105Z,67.35
2022-09-23T20:37:00.605Z,67.32
2022-09-23T20:39:27.354Z,67.81
2022-09-23T20:41:53.797Z,67.86
2022-09-23T20:44:20.296Z,67.63
2022-09-23T20:46:48.758Z,67.91
2022-09-23T20:49:16.573Z,68.21
2022-09-23T20:51:49.671Z,68.29
2022-09-23T20:54:17.351Z,68.54
2022-09-23T20:56:43.799Z,68.85
2022-09-23T20:59:10.403Z,68.87
2022-09-23T21:01:36.947Z,68.41
2022-09-23T21:04:04.457Z,68.72
2022-09-23T21:06:31.094Z,68.70
2022-09-23T21:08:57.550Z,68.38
2022-09-23T21:11:23.976Z,69.21
2022-09-23T21:13:51.663Z,68.75
2022-09-23T21:16:20.060Z,69.59
2022-09-23T21:18:46.719Z,69.38
2022-09-23T21:21:13.172Z,69.01
2022-09-23T21:23:40.565Z,69.12
2022-09-23T21:26:09.449Z,69.18
2022-09-23T21:28:37.957Z,69.31
2022-09-23T21:31:07.263Z,69.90
2022-09-23T21:33:34.245Z,69.87
2022-09-23T21:36:00.774Z,70.20
2022-09-23T21:38:27.180Z,69.56
2022-09-23T21:41:01.186Z,70.25
2022-09-23T21:43:30.841Z,70.36
2022-09-23T21:45:58.916Z,70.41
2022-09-23T21:48:36.615Z,70.21
2022-09-23T21:51:08.540Z,70.80
2022-09-23T21:53:35.950Z,70.21
2022-09-23T21:56:09.357Z,70.02
2022-09-23T21:58:37.699Z,70.62
2022-09-23T22:01:31.270Z,70.79
2022-09-23T22:04:00.322Z,70.98
2022-09-23T22:06:28.228Z,71.05
2022-09-23T22:08:58.117Z,71.21
2022-09-23T22:11:26.600Z,70.62
2022-09-23T22:13:53.042Z,71.34
2022-09-23T22:16:19.545Z,70.88
2022-09-23T22:18:46.060Z,71.54
2022-09-23T22:21:12.504Z,71.30
2022-09-23T22:23:38.907Z,71.63
2022-09-23T22:26:05.403Z,72.03
2022-09-23T22:28:32.781Z,71.87
2022-09-23T22:30:59.386Z,72.45
2022-09-23T22:33:25.829Z,71.95
2022-09-23T22:35:52.265Z,71.93
2022-09-23T22:38:18.691Z,72.66
2022-09-23T22:40:45.194Z,72.63
2022-09-23T22:43:11.668Z,72.88
2022-09-23T22:45:38.144Z,72.83
2022-09-23T22:48:04.865Z,72.66
2022-09-23T22:50:31.321Z,73.19
2022-09-23T22:52:57.774Z,72.52
2022-09-23T22:55:24.213Z,73.13
2022-09-23T22:57:50.669Z,72.64
2022-09-23T23:00:17.110Z,73.32
2022-09-23T23:02:43.533Z,73.21
2022-09-23T23:05:10.049Z,73.01
2022-09-23T23:07:36.517Z,73.61
2022-09-23T23:10:03.070Z,73.57
2022-09-23T23:12:29.487Z,73.46
2022-09-23T23:14:55.952Z,74.06
2022-09-23T23:17:22.393Z,74.15
2022-09-23T23:19:48.815Z,74.01
2022-09-23T23:22:15.327Z,74.34
2022-09-23T23:24:41.819Z,74.62
2022-09-23T23:27:08.252Z,74.38
2022-09-23T23:29:34.720Z,74.42
2022-09-23T23:32:01.291Z,74.32
2022-09-23T23:34:27.810Z,74.84
2022-09-23T23:36:54.269Z,75.30
2022-09-23T23:39:22.189Z,74.97
2022-09-23T23:41:51.653Z,74.75
2022-09-23T23:44:18.142Z,74.75
2022-09-23T23:46:44.610Z,75.81
2022-09-23T23:49:11.104Z,75.02
2022-09-23T23:51:37.589Z,75.32
2022-09-23T23:54:04.240Z,75.73
2022-09-23T23:56:30.860Z,75.00
2022-09-23T23:59:01.727Z,75.17
